Latest Weather Observations for Urandangi

IDQ60801

Issued at 9:12 pm EST Wednesday 19 September 2018 (issued every 10 minutes, with the page automatically refreshed every 10 minutes)

About weather observations | Map of weather stations | Latest weather observations for QLD | Other Formats
Station Details ID: 037058 Name: URANDANGI AERODROME Lat: -21.60 Lon: 138.37 Height: 178.6 m
Data from the previous 72 hours. | See also: Recent months at Urandangi
Date/Time
EST
Temp
°C
App
Temp
°C
Dew
Point
°C
Rel
Hum
%
Delta-T
°C
Wind Press
QNH
hPa
Press
MSL
hPa
Rain since
9am
mm
Dir  Spd
km/h
Gust
km/h
Spd
kts
Gust
kts
19/09:00pm 21.8 15.8 -1.5 21 10.2 S 20 28 11 15 1018.2 1017.5 0.0
19/08:30pm 22.6 15.6 -0.8 21 10.5 S 26 37 14 20 1017.3 1016.7 0.0
19/08:00pm 23.6 17.3 -1.3 19 11.1 SSE 22 33 12 18 1017.2 1016.6 0.0
19/07:30pm 24.4 17.4 -0.7 19 11.4 SSE 26 35 14 19 1016.7 1016.1 0.0
19/07:00pm 25.5 18.8 -1.3 17 12.2 SSE 24 32 13 17 1016.1 1015.4 0.0
19/06:30pm 26.5 19.4 -1.3 16 12.7 SSE 26 35 14 19 1015.7 1015.0 0.0
19/06:00pm 27.6 20.4 -2.3 14 13.6 SSE 26 35 14 19 1015.3 1014.6 0.0
19/05:30pm 28.3 21.4 -2.7 13 14.1 SSE 24 35 13 19 1015.1 1014.4 0.0
19/05:00pm 28.8 21.9 -2.3 13 14.2 SSE 24 32 13 17 1014.9 1014.2 0.0
19/04:30pm 29.0 21.7 -3.2 12 14.5 SSE 26 35 14 19 1014.6 1013.9 0.0
19/04:00pm 29.7 22.8 -2.7 12 14.8 SSE 24 35 13 19 1014.7 1014.0 0.0
19/03:30pm 29.6 22.3 -2.8 12 14.8 SSE 26 39 14 21 1014.7 1014.0 0.0
19/03:00pm 29.0 22.0 -3.2 12 14.5 SSE 24 37 13 20 1015.0 1014.3 0.0
19/02:30pm 28.9 21.9 -3.3 12 14.5 S 24 35 13 19 1015.2 1014.5 0.0
19/02:00pm 28.3 20.6 -2.7 13 14.0 S 28 39 15 21 1015.5 1014.8 0.0
19/01:30pm 28.9 21.7 -2.3 13 14.3 SSE 26 37 14 20 1015.9 1015.2 0.0
19/01:00pm 27.1 19.6 -1.7 15 13.2 S 28 43 15 23 1016.3 1015.6 0.0
19/12:30pm 27.3 20.3 -0.7 16 13.1 SSE 26 35 14 19 1016.6 1016.0 0.0
19/12:00pm 26.0 18.7 -0.1 18 12.2 SSE 28 37 15 20 1016.7 1016.1 0.0
19/11:30am 25.7 18.6 1.1 20 11.7 SSE 28 39 15 21 1017.4 1016.8 0.0
19/11:00am 24.6 18.0 2.1 23 10.8 SSE 26 37 14 20 1017.9 1017.2 0.0
19/10:30am 23.5 16.6 2.4 25 10.1 SSE 28 39 15 21 1018.2 1017.5 0.0
19/10:00am 23.0 16.0 1.9 25 10.0 SSE 28 37 15 20 1018.1 1017.4 0.0
19/09:30am 22.3 15.0 2.4 27 9.5 SSE 30 41 16 22 1018.1 1017.4 0.0
19/09:00am 21.3 13.9 2.1 28 9.0 SSE 30 43 16 23 1017.7 1017.1 -
19/08:30am 20.5 13.4 1.4 28 8.8 S 28 37 15 20 1017.5 1016.9 -
19/08:00am 19.8 13.3 0.3 27 8.7 SSE 24 39 13 21 1017.2 1016.6 -
19/07:30am 19.1 12.8 -0.8 26 8.7 S 22 30 12 16 1016.7 1016.1 -
19/07:00am 18.6 12.6 -1.8 25 8.6 SSE 20 26 11 14 1016.2 1015.5 -
19/06:30am 18.7 12.5 -3.4 22 9.1 S 20 28 11 15 1015.8 1015.1 -
19/06:00am 18.3 13.1 -6.4 18 9.5 SSE 13 17 7 9 1015.3 1014.6 -
19/05:30am 18.8 13.3 -9.2 14 10.2 SSE 13 19 7 10 1014.7 1014.0 -
19/05:00am 20.6 13.9 -10.9 11 11.4 SSW 19 26 10 14 1014.1 1013.4 -
19/04:30am 21.3 13.3 -10.3 11 11.6 SW 26 44 14 24 1013.5 1012.8 -
19/04:23am 17.8 11.8 -10.9 13 10.0 N 15 44 8 24 1012.8 1012.1 -
19/04:00am 18.9 13.4 -10.1 13 10.4 NNE 13 13 7 7 1011.8 1011.2 -
19/03:30am 20.1 14.6 -10.2 12 11.0 NNE 13 15 7 8 1011.7 1011.1 -
19/03:00am 21.1 15.2 -9.4 12 11.4 NE 15 17 8 9 1011.8 1011.2 0.0
19/02:30am 21.2 15.6 -10.4 11 11.6 NE 13 17 7 9 1011.8 1011.2 -
19/02:00am 21.1 14.8 -10.5 11 11.6 NE 17 19 9 10 1012.1 1011.4 -
19/01:30am 19.6 14.0 -10.5 12 10.8 NE 13 15 7 8 1012.5 1011.8 -
19/01:00am 19.6 15.2 -10.5 12 10.8 NE 7 9 4 5 1012.6 1011.9 -
19/12:30am 20.1 14.5 -11.2 11 11.2 NE 13 15 7 8 1012.9 1012.2 -
19/12:00am 19.9 15.3 -12.6 10 11.2 NE 7 9 4 5 1012.9 1012.2 -
 
Date/Time
EST
Temp
°C
App
Temp
°C
Dew
Point
°C
Rel
Hum
%
Delta-T
°C
Wind Press
QNH
hPa
Press
MSL
hPa
Rain since
9am
mm
Dir  Spd
km/h
Gust
km/h
Spd
kts
Gust
kts
18/11:30pm 20.9 16.0 -11.8 10 11.6 NE 9 11 5 6 1013.1 1012.4 -
18/11:00pm 20.7 15.4 -12.0 10 11.6 NE 11 13 6 7 1013.3 1012.6 -
18/10:30pm 19.4 14.7 -14.2 9 11.2 NE 7 9 4 5 1013.4 1012.7 -
18/10:00pm 19.9 15.8 -13.9 9 11.4 NNE 4 6 2 3 1013.5 1012.8 -
18/09:30pm 20.7 16.2 -14.7 8 11.9 NNE 6 6 3 3 1013.3 1012.6 -
18/09:00pm 22.4 18.0 -13.4 8 12.6 NNE 6 7 3 4 1013.3 1012.6 0.0
18/08:30pm 23.1 19.1 -12.9 8 12.9 NE 4 6 2 3 1012.9 1012.2 -
18/08:00pm 23.8 20.6 -12.4 8 13.2 CALM 0 0 0 0 1012.8 1012.1 -
18/07:30pm 25.5 22.3 -12.8 7 14.1 CALM 0 0 0 0 1012.6 1011.9 -
18/07:00pm 28.1 25.0 -10.9 7 15.3 CALM 0 0 0 0 1012.3 1011.6 -
18/06:30pm 31.8 28.7 -10.2 6 17.2 CALM 0 0 0 0 1011.9 1011.3 -
18/06:00pm 33.3 29.4 -11.4 5 18.2 NW 4 7 2 4 1011.6 1010.9 -
18/05:30pm 33.2 28.9 -11.5 5 18.2 NE 6 7 3 4 1011.5 1010.8 -
18/05:00pm 33.4 29.5 -11.3 5 18.3 SSW 4 9 2 5 1011.6 1010.9 -
18/04:30pm 33.7 29.8 -11.1 5 18.4 SSW 4 9 2 5 1011.5 1010.8 -
18/04:00pm 33.4 29.1 -11.3 5 18.3 SW 6 7 3 4 1011.6 1010.9 -
18/03:30pm 33.9 29.6 -11.0 5 18.5 NNW 6 17 3 9 1011.8 1011.2 -
18/03:00pm 33.2 28.7 -14.2 4 18.4 S 6 13 3 7 1012.3 1011.6 -
18/12:00pm 30.3 - - - - NE 2 15 1 8 1015.8 1015.1 0.0
18/11:30am 29.3 - - - - NW 9 17 5 9 1016.5 1015.8 0.0
18/11:00am 28.7 - - - - NNW 11 17 6 9 1016.9 1016.3 0.0
18/10:30am 27.6 - - - - NNE 13 20 7 11 1016.7 1016.1 0.0
18/10:00am 26.1 - - - - NNE 9 17 5 9 1017.0 1016.4 0.0
18/09:30am 22.7 - - - - NNE 6 9 3 5 1017.6 1017.0 0.0
18/09:00am 19.4 - - - - ENE 2 4 1 2 1017.7 1017.1 0.0
18/08:30am 16.7 - - - - CALM 0 0 0 0 1017.5 1016.9 0.0
18/08:00am 13.4 - - - - SSW 6 7 3 4 1017.4 1016.8 0.0
18/07:30am 10.3 - - - - SW 7 9 4 5 1016.9 1016.3 0.0
18/07:00am 7.4 - - - - WNW 6 9 3 5 1016.2 1015.5 0.0
18/06:30am 6.9 - - - - WNW 6 9 3 5 1015.9 1015.2 0.0
18/06:00am 7.2 - - - - CALM 0 0 0 0 1015.4 1014.7 0.0
18/05:30am 6.5 - - - - SE 2 7 1 4 1015.2 1014.5 0.0
18/05:00am 7.6 - - - - E 2 4 1 2 1015.0 1014.3 0.0
18/04:30am 7.5 - - - - CALM 0 0 0 0 1015.1 1014.4 0.0
18/04:00am 8.3 - - - - CALM 0 0 0 0 1015.4 1014.7 0.0
18/03:30am 8.3 - - - - ESE 2 4 1 2 1015.5 1014.8 0.0
18/03:00am 9.0 - - - - ESE 6 6 3 3 1015.4 1014.7 0.0
18/02:30am 10.0 - - - - SE 7 9 4 5 1015.2 1014.5 0.0
18/02:00am 12.1 - - - - E 13 15 7 8 1014.9 1014.2 0.0
18/01:30am 10.8 - - - - E 9 11 5 6 1015.7 1015.0 0.0
18/01:00am 11.5 - - - - ESE 7 9 4 5 1016.1 1015.4 0.0
18/12:30am 12.4 - - - - E 6 7 3 4 1016.4 1015.7 0.0
18/12:00am 11.4 - - - - SE 4 4 2 2 1016.5 1015.8 0.0
 
Date/Time
EST
Temp
°C
App
Temp
°C
Dew
Point
°C
Rel
Hum
%
Delta-T
°C
Wind Press
QNH
hPa
Press
MSL
hPa
Rain since
9am
mm
Dir  Spd
km/h
Gust
km/h
Spd
kts
Gust
kts
17/11:30pm 12.7 - - - - SE 4 6 2 3 1016.6 1016.0 0.0
17/11:00pm 13.4 - - - - SE 6 7 3 4 1016.5 1015.8 0.0
17/10:30pm 12.9 - - - - SSE 7 7 4 4 1016.4 1015.7 0.0
17/10:00pm 13.2 - - - - SSE 6 7 3 4 1016.5 1015.8 0.0
17/09:30pm 14.2 - - - - SSE 6 6 3 3 1016.3 1015.6 0.0
17/09:00pm 14.8 - - - - SE 4 4 2 2 1016.1 1015.4 0.0
17/08:30pm 17.4 - - - - ESE 4 6 2 3 1015.9 1015.2 0.0
17/08:00pm 18.3 - - - - SE 6 7 3 4 1015.6 1014.9 0.0
17/07:30pm 20.9 - - - - SE 7 7 4 4 1015.2 1014.5 0.0
17/07:00pm 22.3 - - - - SE 9 11 5 6 1014.8 1014.1 0.0
17/06:30pm 25.5 - - - - SE 11 13 6 7 1014.6 1013.9 0.0
17/06:00pm 27.1 - - - - SE 11 15 6 8 1014.4 1013.7 0.0
17/05:30pm 27.9 - - - - ESE 13 17 7 9 1014.4 1013.7 0.0
17/05:00pm 28.1 - - - - SSE 13 20 7 11 1014.3 1013.6 0.0
17/04:30pm 28.0 - - - - SSW 11 19 6 10 1014.5 1013.8 0.0
17/04:00pm 28.1 - - - - SE 11 19 6 10 1014.8 1014.1 0.0
17/03:30pm 27.5 - - - - SSE 9 19 5 10 1015.1 1014.4 0.0
17/03:00pm 27.3 - - - - ENE 7 15 4 8 1015.3 1014.6 0.0
17/02:30pm 27.7 - - - - SE 9 24 5 13 1015.6 1014.9 0.0
17/02:00pm 26.5 - - - - SSE 13 20 7 11 1016.2 1015.5 0.0
17/01:30pm 26.8 - - - - SE 13 28 7 15 1016.8 1016.2 0.0
17/01:00pm 24.8 - - - - E 13 20 7 11 1017.4 1016.8 0.0
17/12:30pm 24.9 - - - - ESE 15 22 8 12 1018.1 1017.4 0.0
17/12:00pm 23.8 - - - - ESE 13 26 7 14 1018.8 1018.1 0.0
17/11:30am 23.1 - - - - ESE 17 28 9 15 1019.3 1018.6 0.0
17/11:00am 21.3 - - - - ESE 20 28 11 15 1019.8 1019.1 0.0
17/10:30am 20.4 - - - - E 22 30 12 16 1020.1 1019.4 0.0
17/10:00am 19.6 - - - - ESE 24 32 13 17 1020.1 1019.4 0.0
17/09:30am 17.9 - - - - ESE 17 24 9 13 1020.5 1019.8 0.0
17/09:00am 15.9 - - - - SE 15 19 8 10 1020.5 1019.8 0.0
17/08:30am 14.0 - - - - SE 19 26 10 14 1020.2 1019.5 0.0
17/08:00am 11.2 - - - - SE 13 17 7 9 1020.0 1019.3 0.0
17/07:30am 7.2 - - - - SSE 4 7 2 4 1020.0 1019.3 0.0
17/07:00am 5.1 - - - - SSE 9 9 5 5 1019.7 1019.0 0.0
17/06:30am 4.8 - - - - SE 7 11 4 6 1019.6 1018.9 0.0
17/06:00am 4.6 - - - - SE 9 11 5 6 1019.4 1018.7 0.0
17/05:30am 5.7 - - - - SE 7 9 4 5 1019.2 1018.5 0.0
17/05:00am 5.7 - - - - SE 7 11 4 6 1018.9 1018.2 0.0
17/04:30am 5.8 - - - - SE 7 9 4 5 1018.7 1018.0 0.0
17/04:00am 6.5 - - - - ESE 7 7 4 4 1018.6 1017.9 0.0
17/03:30am 7.1 - - - - ESE 9 11 5 6 1018.5 1017.8 0.0
17/03:00am 8.3 - - - - SE 7 9 4 5 1018.5 1017.8 0.0
17/02:30am 9.9 - - - - SSE 11 13 6 7 1018.6 1017.9 0.0
17/02:00am 10.0 - - - - SSE 13 15 7 8 1018.8 1018.1 0.0
17/01:30am 9.8 - - - - SSE 13 13 7 7 1019.2 1018.5 0.0
17/01:00am 10.4 - - - - SSE 13 15 7 8 1019.4 1018.7 0.0
17/12:30am 10.6 - - - - SSE 11 13 6 7 1019.8 1019.1 0.0
17/12:00am 12.1 - - - - SSE 11 13 6 7 1020.1 1019.4 0.0
 
Date/Time
EST
Temp
°C
App
Temp
°C
Dew
Point
°C
Rel
Hum
%
Delta-T
°C
Wind Press
QNH
hPa
Press
MSL
hPa
Rain since
9am
mm
Dir  Spd
km/h
Gust
km/h
Spd
kts
Gust
kts
16/11:30pm 13.0 - - - - SSE 11 15 6 8 1020.2 1019.5 0.0
16/11:00pm 14.2 - - - - SSE 13 13 7 7 1020.3 1019.6 0.0
16/10:30pm 15.5 - - - - SSE 15 17 8 9 1020.2 1019.5 0.0
16/10:00pm 15.8 - - - - SSE 13 19 7 10 1020.3 1019.6 0.0
16/09:30pm 16.0 - - - - SSE 13 15 7 8 1020.3 1019.6 0.0

Other Formats:

Comma delimited format used in spreadsheet applications
http://www.bom.gov.au/fwo/IDQ60801/IDQ60801.94344.axf

JavaScript Object Notation format (JSON) in row-major order
http://www.bom.gov.au/fwo/IDQ60801/IDQ60801.94344.json